createdAt,value
2019-02-20T00:01:42.685Z,17.10
2019-02-20T00:04:12.430Z,17.30
2019-02-20T00:06:42.183Z,17.07
2019-02-20T00:09:11.944Z,18.50
2019-02-20T00:11:41.657Z,18.57
2019-02-20T00:14:11.781Z,22.10
2019-02-20T00:16:41.521Z,26.17
2019-02-20T00:19:11.298Z,21.83
2019-02-20T00:21:41.012Z,18.20
2019-02-20T00:24:10.776Z,19.70
2019-02-20T00:26:40.515Z,12.53
2019-02-20T00:29:10.291Z,13.83
2019-02-20T00:31:40.038Z,16.23
2019-02-20T00:34:09.774Z,14.83
2019-02-20T00:36:39.519Z,11.17
2019-02-20T00:39:09.650Z,10.40
2019-02-20T00:41:39.398Z,10.57
2019-02-20T00:44:22.963Z,11.07
2019-02-20T00:47:10.657Z,17.30
2019-02-20T00:49:41.546Z,13.30
2019-02-20T00:52:12.888Z,15.23
2019-02-20T00:54:42.654Z,18.93
2019-02-20T00:57:12.446Z,17.03
2019-02-20T00:59:42.162Z,17.87
2019-02-20T01:02:11.914Z,20.80
2019-02-20T01:04:41.665Z,18.70
2019-02-20T01:07:11.654Z,18.83
2019-02-20T01:09:41.411Z,15.03
2019-02-20T01:12:11.284Z,16.63
2019-02-20T01:14:41.172Z,15.37
2019-02-20T01:17:10.911Z,17.33
2019-02-20T01:19:40.600Z,15.80
2019-02-20T01:22:10.316Z,18.07
2019-02-20T01:24:40.081Z,16.27
2019-02-20T01:27:09.803Z,15.60
2019-02-20T01:29:39.553Z,11.13
2019-02-20T01:32:09.401Z,12.17
2019-02-20T01:34:39.181Z,10.20
2019-02-20T01:37:08.929Z,10.27
2019-02-20T01:39:38.683Z,13.27
2019-02-20T01:42:09.463Z,14.80
2019-02-20T01:44:39.256Z,14.73
2019-02-20T01:47:09.016Z,11.10
2019-02-20T01:49:38.772Z,12.00
2019-02-20T01:52:08.524Z,14.03
2019-02-20T01:54:38.237Z,11.97
2019-02-20T01:57:08.028Z,14.60
2019-02-20T01:59:37.754Z,13.00
2019-02-20T02:02:07.462Z,11.93
2019-02-20T02:04:37.204Z,14.40
2019-02-20T02:07:06.979Z,10.17
2019-02-20T02:09:36.734Z,10.97
2019-02-20T02:12:06.475Z,9.87
2019-02-20T02:14:36.230Z,8.73
2019-02-20T02:17:06.321Z,13.60
2019-02-20T02:19:36.082Z,9.27
2019-02-20T02:22:05.841Z,12.00
2019-02-20T02:24:35.591Z,12.73
2019-02-20T02:27:05.347Z,10.23
2019-02-20T02:29:35.076Z,11.37
2019-02-20T02:32:04.847Z,9.70
2019-02-20T02:34:34.572Z,10.50
2019-02-20T02:37:04.388Z,10.93
2019-02-20T02:39:34.138Z,11.13
2019-02-20T02:42:03.887Z,12.27
2019-02-20T02:44:34.378Z,8.73
2019-02-20T02:47:04.087Z,11.47
2019-02-20T02:49:33.859Z,11.67
2019-02-20T02:52:03.588Z,21.20
2019-02-20T02:54:33.349Z,13.53
2019-02-20T02:57:03.098Z,8.97
2019-02-20T02:59:32.850Z,11.07
2019-02-20T03:02:02.598Z,11.93
2019-02-20T03:04:32.354Z,11.30
2019-02-20T03:07:02.106Z,16.37
2019-02-20T03:09:31.823Z,14.53
2019-02-20T03:12:01.586Z,14.37
2019-02-20T03:14:31.322Z,11.47
2019-02-20T03:17:01.054Z,12.73
2019-02-20T03:19:30.803Z,11.10
2019-02-20T03:22:00.516Z,11.67
2019-02-20T03:24:30.286Z,12.47
2019-02-20T03:26:59.996Z,12.60
2019-02-20T03:29:29.786Z,10.00
2019-02-20T03:31:59.495Z,12.43
2019-02-20T03:34:29.241Z,10.73
2019-02-20T03:36:58.988Z,11.57
2019-02-20T03:39:28.807Z,11.77
2019-02-20T03:41:58.553Z,13.40
2019-02-20T03:44:28.312Z,10.40
2019-02-20T03:46:58.061Z,11.17
2019-02-20T03:49:27.776Z,13.47
2019-02-20T03:51:57.554Z,14.77
2019-02-20T03:54:27.264Z,19.30
2019-02-20T03:56:57.009Z,16.83
2019-02-20T03:59:26.957Z,19.17
2019-02-20T04:01:56.677Z,15.40
2019-02-20T04:04:26.450Z,14.73
2019-02-20T04:06:56.163Z,11.63
2019-02-20T04:09:25.910Z,19.23
2019-02-20T04:11:55.669Z,10.67
2019-02-20T04:14:25.397Z,12.93
2019-02-20T04:16:55.152Z,14.03
2019-02-20T04:19:24.878Z,13.97
2019-02-20T04:21:54.621Z,14.73
2019-02-20T04:24:24.378Z,10.67
2019-02-20T04:26:54.085Z,17.50
2019-02-20T04:29:23.868Z,28.87
2019-02-20T04:31:53.590Z,20.00
2019-02-20T04:34:23.367Z,11.90
2019-02-20T04:36:53.073Z,12.87
2019-02-20T04:39:22.815Z,18.07
2019-02-20T04:41:52.557Z,15.10
2019-02-20T04:44:22.334Z,16.00
2019-02-20T04:46:52.084Z,17.10
2019-02-20T04:49:21.835Z,16.23
2019-02-20T04:51:51.597Z,15.53
2019-02-20T04:54:21.299Z,14.50
2019-02-20T04:56:51.078Z,17.30
2019-02-20T04:59:20.794Z,16.17
2019-02-20T05:01:50.580Z,15.07
2019-02-20T05:04:20.370Z,15.40
2019-02-20T05:06:50.072Z,19.97
2019-02-20T05:09:19.850Z,23.97
2019-02-20T05:11:49.720Z,20.30
2019-02-20T05:14:19.533Z,18.07
2019-02-20T05:16:49.284Z,22.00
2019-02-20T05:19:19.004Z,24.00
2019-02-20T05:21:48.787Z,33.03
2019-02-20T05:24:24.775Z,29.63
2019-02-20T05:26:50.042Z,34.77
2019-02-20T05:29:19.776Z,19.47
2019-02-20T05:31:49.526Z,23.67
2019-02-20T05:34:19.287Z,22.87
2019-02-20T05:36:49.000Z,26.43
2019-02-20T05:39:18.794Z,31.97
2019-02-20T05:41:48.516Z,29.00
2019-02-20T05:44:18.265Z,31.70
2019-02-20T05:46:48.024Z,26.33
2019-02-20T05:49:17.798Z,31.60
2019-02-20T05:51:47.554Z,25.97
2019-02-20T05:54:17.310Z,22.97
2019-02-20T05:56:47.053Z,22.53
2019-02-20T05:59:16.766Z,16.43
2019-02-20T06:01:46.532Z,15.77
2019-02-20T06:04:16.241Z,15.90
2019-02-20T06:06:46.023Z,15.87
2019-02-20T06:09:15.739Z,14.63
2019-02-20T06:11:45.562Z,15.87
2019-02-20T06:14:15.276Z,16.37
2019-02-20T06:16:45.026Z,14.03
2019-02-20T06:19:14.780Z,14.47
2019-02-20T06:21:44.492Z,18.90
2019-02-20T06:24:14.614Z,14.57
2019-02-20T06:26:44.283Z,27.73
2019-02-20T06:29:13.949Z,17.83
2019-02-20T06:31:46.441Z,16.17
2019-02-20T06:34:22.013Z,15.47
2019-02-20T06:36:51.862Z,20.67
2019-02-20T06:39:21.641Z,18.53
2019-02-20T06:41:57.462Z,21.57
2019-02-20T06:44:30.875Z,21.53
2019-02-20T06:47:08.234Z,34.27
2019-02-20T06:49:38.016Z,27.30
2019-02-20T06:52:07.737Z,22.73
2019-02-20T06:54:42.025Z,22.20
2019-02-20T06:57:11.854Z,22.33
2019-02-20T06:59:54.191Z,22.87
2019-02-20T07:02:23.946Z,24.07
2019-02-20T07:05:26.016Z,24.57
2019-02-20T07:08:16.611Z,21.93
2019-02-20T07:11:09.025Z,21.87
2019-02-20T07:14:02.967Z,19.17
2019-02-20T07:16:57.367Z,17.67
2019-02-20T07:19:52.286Z,18.63
2019-02-20T07:22:43.191Z,16.10
2019-02-20T07:25:25.549Z,16.77
2019-02-20T07:28:22.453Z,15.30
2019-02-20T07:30:52.174Z,18.53
2019-02-20T07:33:21.958Z,17.53
2019-02-20T07:35:51.673Z,16.93
2019-02-20T07:38:21.439Z,16.00
2019-02-20T07:40:51.207Z,15.27
2019-02-20T07:43:20.931Z,17.40
2019-02-20T07:45:50.694Z,17.17
2019-02-20T07:48:20.416Z,15.07
2019-02-20T07:50:50.150Z,17.10
2019-02-20T07:53:19.893Z,16.63
2019-02-20T07:55:49.605Z,15.30
2019-02-20T07:58:19.372Z,16.07
2019-02-20T08:00:50.197Z,14.47
2019-02-20T08:03:20.016Z,16.17
2019-02-20T08:05:49.753Z,15.87
2019-02-20T08:08:20.142Z,16.13
2019-02-20T08:10:49.871Z,19.00
2019-02-20T08:13:19.629Z,20.87
2019-02-20T08:15:49.380Z,17.83
2019-02-20T08:18:19.107Z,17.70
2019-02-20T08:20:48.970Z,19.03
2019-02-20T08:23:23.200Z,20.47
2019-02-20T08:25:52.977Z,17.03
2019-02-20T08:28:22.719Z,19.10
2019-02-20T08:30:55.130Z,38.60
2019-02-20T08:33:24.861Z,17.30
2019-02-20T08:35:54.595Z,19.03
2019-02-20T08:38:24.989Z,15.43
2019-02-20T08:40:58.143Z,14.93
2019-02-20T08:43:29.512Z,16.90
2019-02-20T08:46:08.214Z,19.63
2019-02-20T08:48:42.169Z,20.13
2019-02-20T08:51:12.108Z,19.40
2019-02-20T08:53:41.848Z,16.87
2019-02-20T08:56:11.608Z,13.57
2019-02-20T08:58:41.342Z,16.07
2019-02-20T09:01:11.064Z,14.17
2019-02-20T09:03:49.845Z,11.13
2019-02-20T09:06:20.018Z,13.73
2019-02-20T09:08:54.300Z,18.13
2019-02-20T09:11:24.111Z,11.60
2019-02-20T09:13:53.834Z,13.60
2019-02-20T09:16:23.628Z,12.10
2019-02-20T09:18:53.527Z,13.70
2019-02-20T09:21:24.313Z,18.43
2019-02-20T09:23:58.559Z,15.33
2019-02-20T09:26:31.682Z,12.70
2019-02-20T09:29:01.592Z,15.10
2019-02-20T09:31:31.407Z,11.67
2019-02-20T09:34:01.188Z,13.37
2019-02-20T09:36:31.341Z,13.87
2019-02-20T09:39:20.610Z,17.30
2019-02-20T09:41:50.382Z,14.73
2019-02-20T09:44:20.091Z,13.10
2019-02-20T09:46:50.070Z,12.27
2019-02-20T09:49:21.383Z,15.27
2019-02-20T09:51:55.357Z,9.70
2019-02-20T09:54:25.539Z,13.00
2019-02-20T09:56:56.605Z,15.00
2019-02-20T09:59:26.333Z,11.77
2019-02-20T10:01:57.701Z,10.77
2019-02-20T10:04:27.502Z,13.37
2019-02-20T10:07:00.241Z,12.63
2019-02-20T10:09:30.496Z,10.33
2019-02-20T10:12:00.389Z,13.13
2019-02-20T10:14:36.873Z,13.00
2019-02-20T10:17:07.315Z,14.93
2019-02-20T10:19:38.608Z,12.40
2019-02-20T10:22:11.267Z,12.30
2019-02-20T10:24:46.747Z,13.90
2019-02-20T10:27:16.979Z,10.23
2019-02-20T10:29:55.248Z,12.33
2019-02-20T10:32:25.994Z,15.23
2019-02-20T10:34:57.294Z,12.40
2019-02-20T10:37:27.123Z,11.47
2019-02-20T10:39:58.339Z,12.73
2019-02-20T10:42:28.101Z,11.23
2019-02-20T10:44:59.114Z,14.20
2019-02-20T10:47:31.162Z,11.13
2019-02-20T10:50:02.093Z,11.97
2019-02-20T10:52:33.472Z,11.50
2019-02-20T10:55:09.119Z,12.57
2019-02-20T10:57:40.084Z,10.93
2019-02-20T11:00:23.629Z,16.73
2019-02-20T11:02:58.176Z,37.17
2019-02-20T11:05:33.359Z,14.90
2019-02-20T11:08:03.380Z,13.83
2019-02-20T11:10:40.682Z,15.47
2019-02-20T11:13:11.601Z,17.77
2019-02-20T11:15:41.379Z,20.73
2019-02-20T11:18:14.745Z,15.87
2019-02-20T11:20:48.778Z,16.27
2019-02-20T11:23:21.527Z,19.63
2019-02-20T11:25:57.391Z,18.03
2019-02-20T11:28:30.232Z,11.67
2019-02-20T11:31:08.875Z,14.67
2019-02-20T11:33:39.482Z,22.50
2019-02-20T11:36:11.063Z,14.10
2019-02-20T11:38:53.688Z,18.33
2019-02-20T11:41:23.464Z,18.23
2019-02-20T11:43:58.601Z,18.40
2019-02-20T11:46:30.963Z,14.10
2019-02-20T11:49:01.905Z,16.73
2019-02-20T11:51:35.980Z,19.40
2019-02-20T11:54:08.316Z,23.33
2019-02-20T11:56:42.432Z,23.73
2019-02-20T11:59:14.675Z,33.00
2019-02-20T12:01:44.376Z,28.57
2019-02-20T12:04:14.286Z,22.20
2019-02-20T12:06:45.716Z,33.97
2019-02-20T12:09:23.126Z,23.57
2019-02-20T12:11:54.673Z,21.07
2019-02-20T12:14:27.646Z,22.77
2019-02-20T12:17:00.297Z,20.03
2019-02-20T12:19:31.688Z,18.87
2019-02-20T12:22:04.566Z,28.40
2019-02-20T12:24:40.061Z,18.97
2019-02-20T12:27:09.858Z,19.07
2019-02-20T12:29:39.623Z,15.43
2019-02-20T12:32:09.379Z,24.93
2019-02-20T12:34:50.804Z,27.67
2019-02-20T12:37:25.069Z,27.73
2019-02-20T12:39:55.014Z,29.77
2019-02-20T12:42:31.623Z,27.97
2019-02-20T12:45:03.023Z,31.13
2019-02-20T12:47:34.170Z,20.73
2019-02-20T12:50:13.105Z,19.97
2019-02-20T12:52:42.887Z,21.27
2019-02-20T12:55:14.247Z,21.27
2019-02-20T12:57:47.652Z,15.10
2019-02-20T13:00:18.722Z,14.37
2019-02-20T13:02:48.521Z,17.93
2019-02-20T13:05:21.498Z,20.70
2019-02-20T13:07:59.277Z,22.73
2019-02-20T13:10:29.095Z,25.57
2019-02-20T13:13:02.111Z,27.47
2019-02-20T13:15:31.927Z,23.50
2019-02-20T13:18:04.871Z,21.67
2019-02-20T13:20:34.928Z,35.07
2019-02-20T13:23:11.857Z,23.00
2019-02-20T13:25:43.136Z,24.03
2019-02-20T13:28:12.957Z,27.53
2019-02-20T13:30:53.624Z,23.00
2019-02-20T13:33:23.191Z,25.83
2019-02-20T13:35:53.241Z,29.73
2019-02-20T13:38:22.995Z,24.93
2019-02-20T13:40:58.494Z,25.77
2019-02-20T13:43:30.441Z,36.10
2019-02-20T13:46:03.050Z,34.17
2019-02-20T13:48:32.802Z,26.43
2019-02-20T13:51:04.768Z,38.97
2019-02-20T13:53:34.545Z,39.23
2019-02-20T13:56:08.990Z,37.33
2019-02-20T13:58:40.697Z,84.60
2019-02-20T14:01:11.726Z,105.97
2019-02-20T14:03:41.533Z,43.17
2019-02-20T14:06:11.464Z,58.57
2019-02-20T14:08:44.304Z,94.30
2019-02-20T14:11:17.299Z,76.33
2019-02-20T14:13:47.566Z,68.10
2019-02-20T14:16:18.939Z,72.37
2019-02-20T14:18:48.827Z,54.57
2019-02-20T14:21:21.553Z,72.30
2019-02-20T14:23:51.654Z,111.20
2019-02-20T14:26:21.441Z,101.80
2019-02-20T14:28:54.546Z,91.00
2019-02-20T14:31:24.350Z,82.13
2019-02-20T14:33:58.064Z,111.00
2019-02-20T14:36:30.959Z,50.53
2019-02-20T14:39:02.255Z,44.37
2019-02-20T14:41:32.107Z,77.87
2019-02-20T14:44:03.406Z,32.57
2019-02-20T14:46:36.281Z,75.40
2019-02-20T14:49:06.209Z,33.37
2019-02-20T14:51:38.951Z,30.97
2019-02-20T14:54:13.266Z,70.80
2019-02-20T14:56:43.066Z,48.00
2019-02-20T14:59:12.868Z,59.37
2019-02-20T15:01:42.750Z,61.13
2019-02-20T15:04:14.611Z,48.30
2019-02-20T15:06:44.500Z,30.73
2019-02-20T15:09:14.303Z,48.63
2019-02-20T15:11:44.085Z,46.00
2019-02-20T15:14:13.934Z,63.70
2019-02-20T15:16:43.814Z,64.57
2019-02-20T15:19:15.263Z,61.00
2019-02-20T15:21:45.201Z,43.20
2019-02-20T15:24:15.367Z,58.30
2019-02-20T15:26:45.427Z,48.00
2019-02-20T15:29:15.332Z,50.97
2019-02-20T15:31:47.047Z,51.77
2019-02-20T15:34:16.932Z,56.47
2019-02-20T15:36:46.762Z,56.33
2019-02-20T15:39:16.586Z,135.70
2019-02-20T15:41:48.032Z,117.07
2019-02-20T15:44:17.837Z,78.87
2019-02-20T15:46:48.061Z,67.00
2019-02-20T15:49:17.908Z,53.70
2019-02-20T15:51:47.853Z,57.63
2019-02-20T15:54:17.728Z,48.90
2019-02-20T15:56:48.976Z,46.17
2019-02-20T15:59:18.911Z,50.83
2019-02-20T16:01:49.024Z,77.73
2019-02-20T16:04:19.050Z,85.83
2019-02-20T16:06:48.965Z,101.33
2019-02-20T16:09:18.830Z,77.40
2019-02-20T16:11:48.632Z,92.83
2019-02-20T16:14:18.385Z,89.87
2019-02-20T16:16:48.418Z,86.27
2019-02-20T16:19:18.151Z,70.23
2019-02-20T16:21:47.946Z,118.60
2019-02-20T16:24:17.699Z,194.63
2019-02-20T16:26:47.494Z,205.90
2019-02-20T16:29:17.254Z,229.73
2019-02-20T16:31:47.085Z,87.73
2019-02-20T16:34:17.027Z,87.80
2019-02-20T16:36:46.758Z,64.80
2019-02-20T16:39:17.333Z,76.27
2019-02-20T16:41:52.266Z,99.37
2019-02-20T16:44:22.063Z,109.60
2019-02-20T16:46:51.806Z,98.47
2019-02-20T16:49:32.233Z,73.83
2019-02-20T16:52:01.983Z,51.80
2019-02-20T16:54:31.801Z,80.23
2019-02-20T16:57:01.547Z,72.00
2019-02-20T16:59:31.366Z,92.63
2019-02-20T17:02:01.132Z,99.30
2019-02-20T17:04:30.940Z,60.00
2019-02-20T17:07:00.724Z,72.40
2019-02-20T17:09:30.504Z,91.97
2019-02-20T17:12:01.511Z,102.73
2019-02-20T17:14:31.433Z,119.67
2019-02-20T17:17:01.212Z,175.07
2019-02-20T17:19:30.947Z,152.77
2019-02-20T17:22:00.712Z,129.20
2019-02-20T17:24:30.483Z,141.57
2019-02-20T17:27:00.717Z,142.80
2019-02-20T17:29:30.754Z,108.27
2019-02-20T17:32:00.514Z,67.07
2019-02-20T17:34:30.453Z,75.23
2019-02-20T17:37:00.187Z,85.00
2019-02-20T17:39:30.008Z,77.80
2019-02-20T17:42:00.008Z,65.47
2019-02-20T17:44:30.052Z,171.67
2019-02-20T17:46:59.836Z,395.93
2019-02-20T17:49:31.296Z,249.83
2019-02-20T17:52:01.045Z,109.67
2019-02-20T17:54:30.975Z,116.57
2019-02-20T17:57:01.071Z,102.17
2019-02-20T17:59:30.848Z,107.43
2019-02-20T18:02:00.635Z,112.53
2019-02-20T18:04:30.423Z,132.27
2019-02-20T18:07:00.290Z,129.83
2019-02-20T18:09:30.064Z,146.53
2019-02-20T18:11:59.833Z,138.83
2019-02-20T18:14:29.595Z,65.23
2019-02-20T18:16:59.364Z,101.87
2019-02-20T18:19:29.177Z,107.47
2019-02-20T18:22:14.209Z,90.47
2019-02-20T18:24:49.454Z,139.70
2019-02-20T18:27:23.896Z,104.00
2019-02-20T18:29:55.256Z,82.83
2019-02-20T18:32:33.293Z,85.23
2019-02-20T18:35:12.866Z,87.63
2019-02-20T18:37:49.858Z,76.50
2019-02-20T18:40:28.183Z,82.67
2019-02-20T18:46:25.217Z,124.53
2019-02-20T18:49:25.893Z,156.57
2019-02-20T18:58:37.258Z,132.67
2019-02-20T19:01:03.402Z,91.33
2019-02-20T19:03:38.366Z,89.47
2019-02-20T19:06:19.488Z,84.40
2019-02-20T19:08:51.605Z,77.40
2019-02-20T19:11:51.059Z,93.23
2019-02-20T19:14:28.290Z,164.63
2019-02-20T19:17:24.090Z,299.63
2019-02-20T19:20:09.624Z,403.97
2019-02-20T19:22:56.774Z,738.67
2019-02-20T19:25:53.344Z,752.27
2019-02-20T19:28:45.835Z,275.17
2019-02-20T19:31:39.530Z,128.80
2019-02-20T19:34:40.050Z,127.53
2019-02-20T19:37:33.852Z,122.53
2019-02-20T19:40:13.444Z,97.43
2019-02-20T19:43:07.729Z,93.30
2019-02-20T19:45:42.792Z,76.03
2019-02-20T19:48:50.087Z,86.50
2019-02-20T19:51:39.947Z,86.83
2019-02-20T19:54:23.518Z,82.93
2019-02-20T19:57:09.425Z,72.93
2019-02-20T19:59:47.490Z,104.13
2019-02-20T20:02:38.091Z,105.70
2019-02-20T20:05:33.467Z,107.07
2019-02-20T20:08:17.227Z,77.53
2019-02-20T20:11:12.937Z,64.53
2019-02-20T20:14:08.923Z,58.30
2019-02-20T20:17:15.103Z,64.80
2019-02-20T20:20:03.569Z,55.90
2019-02-20T20:22:53.708Z,104.33
2019-02-20T20:25:27.389Z,68.93
2019-02-20T20:28:07.430Z,73.23
2019-02-20T20:30:49.906Z,80.67
2019-02-20T20:33:43.290Z,68.17
2019-02-20T20:36:19.563Z,81.67
2019-02-20T20:39:14.545Z,124.63
2019-02-20T20:41:57.395Z,82.17
2019-02-20T20:44:34.413Z,90.23
2019-02-20T20:47:31.640Z,74.47
2019-02-20T20:50:11.333Z,78.80
2019-02-20T20:53:03.883Z,152.20
2019-02-20T20:56:11.746Z,175.10
2019-02-20T20:59:02.905Z,150.10
2019-02-20T21:01:51.210Z,166.97
2019-02-20T21:04:30.274Z,107.43
2019-02-20T21:07:21.980Z,86.83
2019-02-20T21:09:58.291Z,86.40
2019-02-20T21:12:55.551Z,91.30
2019-02-20T21:15:47.742Z,74.30
2019-02-20T21:18:26.889Z,78.73
2019-02-20T21:21:07.054Z,77.40
2019-02-20T21:24:09.447Z,59.27
2019-02-20T21:26:55.054Z,67.50
2019-02-20T21:29:52.905Z,57.10
2019-02-20T21:32:44.604Z,58.07
2019-02-20T21:35:21.383Z,50.97
2019-02-20T21:38:07.384Z,48.63
2019-02-20T21:40:40.219Z,50.60
2019-02-20T21:43:32.216Z,50.83
2019-02-20T21:46:16.964Z,40.03
2019-02-20T21:49:01.910Z,43.03
2019-02-20T21:51:34.758Z,45.80
2019-02-20T21:54:31.167Z,44.60
2019-02-20T21:57:09.851Z,48.53
2019-02-20T21:59:54.318Z,54.00
2019-02-20T22:02:32.970Z,55.93
2019-02-20T22:05:30.299Z,49.03
2019-02-20T22:08:14.734Z,50.90
2019-02-20T22:10:56.505Z,59.73
2019-02-20T22:13:37.869Z,54.53
2019-02-20T22:16:10.770Z,50.93
2019-02-20T22:18:58.685Z,50.97
2019-02-20T22:22:00.262Z,46.80
2019-02-20T22:24:48.099Z,47.47
2019-02-20T22:27:39.071Z,47.30
2019-02-20T22:30:29.381Z,40.60
2019-02-20T22:33:18.732Z,46.50
2019-02-20T22:35:59.827Z,46.43
2019-02-20T22:38:44.827Z,56.00
2019-02-20T22:41:32.567Z,45.40
2019-02-20T22:44:31.190Z,52.60
2019-02-20T22:47:10.077Z,72.90
2019-02-20T22:49:56.526Z,58.87
2019-02-20T22:52:35.145Z,55.97
2019-02-20T22:55:25.951Z,64.80
2019-02-20T22:58:04.564Z,65.87
2019-02-20T23:01:01.892Z,47.07
2019-02-20T23:03:43.496Z,47.00
2019-02-20T23:06:22.025Z,56.57
2019-02-20T23:09:05.046Z,51.87
2019-02-20T23:11:55.732Z,52.70
2019-02-20T23:14:43.646Z,51.90
2019-02-20T23:17:13.433Z,47.00
2019-02-20T23:19:43.162Z,46.77
2019-02-20T23:22:12.842Z,42.00
2019-02-20T23:24:42.640Z,37.03
2019-02-20T23:27:12.414Z,39.57
2019-02-20T23:29:42.099Z,38.80
2019-02-20T23:32:11.780Z,38.30
2019-02-20T23:34:41.465Z,37.87
2019-02-20T23:37:11.181Z,41.67
2019-02-20T23:39:40.937Z,34.33
2019-02-20T23:42:10.656Z,36.57
2019-02-20T23:44:40.413Z,36.63
2019-02-20T23:47:10.139Z,35.03
2019-02-20T23:49:39.889Z,34.43
2019-02-20T23:52:09.612Z,33.53
2019-02-20T23:54:39.392Z,31.27
2019-02-20T23:57:09.094Z,35.03
2019-02-20T23:59:38.841Z,36.53
